Observations for GLASGOW AIRPORT, United Kingdom (EGPF)

EGPF 280520Z AUTO 06013KT 9999 BKN020 OVC042 12/11 Q1005
EGPF 280450Z AUTO 05011KT 9999 FEW011 BKN023 OVC034 12/11 Q1005 
EGPF 280420Z AUTO 06011KT 9999 FEW020 OVC034 12/11 Q1005
EGPF 280350Z AUTO 06012KT 9999 SCT029 OVC033 12/10 Q1005
EGPF 280320Z AUTO 06011KT 9999 BKN017 OVC027 12/10 Q1005
EGPF 280250Z AUTO 06011KT 9999 -RA FEW009 SCT017 BKN030 11/10 Q1005 
EGPF 280220Z AUTO 06009KT 9999 -RA FEW009 SCT017 BKN022 12/11 Q1005 
EGPF 280150Z AUTO 06012KT 9999 -RA OVC016 12/11 Q1005   
EGPF 280120Z AUTO 06013KT 9999 -RA FEW008 BKN015 OVC029 12/11 Q1005 
EGPF 280050Z AUTO 06013KT 9000 -RA SCT007 SCT014 OVC031 12/11 Q1005 
EGPF 280020Z AUTO 06011KT 9999 SCT007 SCT025 BKN034 12/11 Q1005 
EGPF 272350Z AUTO 06012KT 9999 -RA FEW007 SCT015 OVC033 12/11 Q1005 
EGPF 272320Z AUTO 06013KT 9999 -RA SCT007 BKN013 BKN022 12/11 Q1005 
EGPF 272250Z AUTO 06012KT 9999 BKN006 BKN015 OVC022 12/11 Q1005 
EGPF 272220Z AUTO 06013KT 9999 BKN005/// OVC034/// //////TCU 12/11 Q1005
EGPF 272150Z AUTO 06012KT 6000 -RA BKN005/// BKN011/// OVC022/// //////TCU 12/11 Q1005  
EGPF 272120Z AUTO 06012KT 6000 -RA BKN005/// OVC016/// //////TCU 12/11 Q1005
EGPF 272050Z AUTO 06012KT 9000 -RA SCT006/// OVC015/// //////TCU 12/11 Q1005
EGPF 272020Z AUTO 06012KT 9000 -RA BKN006 OVC011 12/11 Q1005
EGPF 271950Z AUTO 06011KT 6000 -RA BKN005 OVC012 12/11 Q1005
EGPF 271920Z AUTO 06011KT 6000 -RA BKN006 OVC012 12/11 Q1005
EGPF 271850Z AUTO 05011KT 4000 -DZ SCT007/// BKN012/// OVC019/// //////TCU 12/11 Q1005  
EGPF 271820Z AUTO 05010KT 4500 -DZ SCT007/// OVC019/// //////TCU 13/12 Q1005
EGPF 271750Z AUTO 06010KT 6000 -RA FEW011/// OVC021/// //////TCU 13/12 Q1005
EGPF 271720Z AUTO 05009KT 7000 -RA SCT007/// BKN016/// OVC021/// //////TCU 13/12 Q1005  
EGPF 271650Z AUTO 06009KT 9999 -RA BKN006 BKN012 OVC019 13/12 Q1006 
EGPF 271620Z AUTO 06009KT 9999 -RA BKN005 BKN015 OVC032 13/12 Q1006 REDZ
EGPF 271550Z AUTO 06009KT 3000 -RADZ BKN005/// OVC033/// //////TCU 13/12 Q1006 REDZ 
EGPF 271520Z AUTO 06009KT 3400 -RADZ BKN006 OVC021 13/12 Q1006  
EGPF 271450Z AUTO 07008KT 4500 HZ SCT007 BKN010 BKN015 14/13 Q1006  
EGPF 271420Z AUTO 06008KT 6000 -RA BKN008 BKN017 OVC021 13/12 Q1006 
EGPF 271350Z AUTO 08008G18KT 6000 BKN011 OVC020 14/12 Q1006 
EGPF 271320Z AUTO 09010KT 040V110 9999 BKN014/// OVC022/// 14/11 Q1006  
EGPF 271250Z AUTO 07009KT 9999 OVC015 14/12 Q1006   
EGPF 271220Z AUTO 06009KT 9999 BKN013 OVC019 13/11 Q1007
EGPF 271150Z AUTO 07010KT 9999 OVC011/// //////TCU 13/11 Q1007  
EGPF 271120Z AUTO 07010KT 9999 BKN012 OVC019 13/11 Q1007
EGPF 271050Z AUTO 07010KT 9999 SCT011 OVC015 13/11 Q1007
EGPF 271020Z AUTO 06012KT 9999 -RA SCT008 OVC019 12/11 Q1007
EGPF 270950Z AUTO 06011KT 9999 -RA BKN008 OVC018 12/11 Q1008
EGPF 270920Z AUTO 06011KT 5000 -DZ SCT007/// OVC011/// //////TCU 11/10 Q1008
EGPF 270850Z AUTO 07011KT 5000 -DZ SCT008 BKN015 OVC020 11/10 Q1008 
EGPF 270820Z AUTO 07011KT 9999 -RA SCT008/// BKN019/// OVC030/// //////TCU 11/10 Q1008  
EGPF 270750Z AUTO 07011KT 9000 -RA SCT008/// SCT015/// BKN030/// //////TCU 11/10 Q1008  
EGPF 270720Z AUTO 07010KT 7000 -RA SCT009/// SCT013/// BKN025/// //////TCU 11/10 Q1008  
EGPF 270650Z AUTO 06011KT 9999 -RA FEW009/// SCT014/// OVC029/// //////TCU 11/10 Q1008  
EGPF 270620Z AUTO 07011KT 9999 -RA BKN010/// BKN019/// OVC031/// //////TCU 11/10 Q1008  
EGPF 270550Z AUTO 07011KT 9999 -RA BKN010/// OVC032/// //////TCU 11/09 Q1009
EGPF 270520Z AUTO 07010KT 9999 -RA BKN009/// OVC016/// //////TCU 11/10 Q1009
EGPF 270450Z AUTO 07011KT 9999 -RA SCT008/// SCT011/// OVC020/// //////TCU 11/10 Q1009